sensor_id;sensor_type;location;lat;lon;timestamp;temperature;humidity
1411;DHT22;700;51.906;8.404;2023-04-03T00:02:43;6.10;99.90
1411;DHT22;700;51.906;8.404;2023-04-03T00:07:44;6.10;99.90
1411;DHT22;700;51.906;8.404;2023-04-03T00:12:47;5.90;99.90
1411;DHT22;700;51.906;8.404;2023-04-03T00:17:48;6.10;99.90
1411;DHT22;700;51.906;8.404;2023-04-03T00:22:50;6.20;99.90
1411;DHT22;700;51.906;8.404;2023-04-03T00:27:54;6.20;99.90
1411;DHT22;700;51.906;8.404;2023-04-03T00:32:55;5.90;99.90
1411;DHT22;700;51.906;8.404;2023-04-03T00:37:56;6.00;99.90
1411;DHT22;700;51.906;8.404;2023-04-03T00:42:58;6.10;99.90
1411;DHT22;700;51.906;8.404;2023-04-03T00:48:00;5.70;99.90
1411;DHT22;700;51.906;8.404;2023-04-03T00:53:05;5.40;99.90
1411;DHT22;700;51.906;8.404;2023-04-03T00:58:10;5.40;99.90
1411;DHT22;700;51.906;8.404;2023-04-03T01:03:11;5.50;99.90
1411;DHT22;700;51.906;8.404;2023-04-03T01:08:11;5.60;99.90
1411;DHT22;700;51.906;8.404;2023-04-03T01:13:38;5.60;99.90
1411;DHT22;700;51.906;8.404;2023-04-03T01:18:42;5.60;99.90
1411;DHT22;700;51.906;8.404;2023-04-03T01:29:04;5.70;99.90
1411;DHT22;700;51.906;8.404;2023-04-03T01:34:05;5.80;99.90
1411;DHT22;700;51.906;8.404;2023-04-03T01:39:10;5.60;99.90
1411;DHT22;700;51.906;8.404;2023-04-03T01:44:11;5.50;99.90
1411;DHT22;700;51.906;8.404;2023-04-03T01:49:16;5.60;99.90
1411;DHT22;700;51.906;8.404;2023-04-03T01:54:17;5.60;99.90
1411;DHT22;700;51.906;8.404;2023-04-03T01:59:17;5.60;99.90
1411;DHT22;700;51.906;8.404;2023-04-03T02:04:19;5.50;99.90
1411;DHT22;700;51.906;8.404;2023-04-03T02:09:20;5.40;99.90
1411;DHT22;700;51.906;8.404;2023-04-03T02:14:20;5.40;99.90
1411;DHT22;700;51.906;8.404;2023-04-03T02:19:28;5.00;99.90
1411;DHT22;700;51.906;8.404;2023-04-03T02:24:31;5.10;99.90
1411;DHT22;700;51.906;8.404;2023-04-03T02:29:32;5.00;99.90
1411;DHT22;700;51.906;8.404;2023-04-03T02:34:33;4.60;99.90
1411;DHT22;700;51.906;8.404;2023-04-03T02:39:36;5.00;99.90
1411;DHT22;700;51.906;8.404;2023-04-03T02:44:37;4.90;99.90
1411;DHT22;700;51.906;8.404;2023-04-03T02:49:41;4.70;99.90
1411;DHT22;700;51.906;8.404;2023-04-03T02:54:45;4.40;99.90
1411;DHT22;700;51.906;8.404;2023-04-03T02:59:45;4.30;99.90
1411;DHT22;700;51.906;8.404;2023-04-03T03:04:46;4.50;99.90
1411;DHT22;700;51.906;8.404;2023-04-03T03:09:47;4.40;99.90
1411;DHT22;700;51.906;8.404;2023-04-03T03:14:50;4.30;99.90
1411;DHT22;700;51.906;8.404;2023-04-03T03:19:51;4.20;99.90
1411;DHT22;700;51.906;8.404;2023-04-03T03:24:51;4.40;99.90
1411;DHT22;700;51.906;8.404;2023-04-03T03:29:54;4.30;99.90
1411;DHT22;700;51.906;8.404;2023-04-03T03:34:55;4.20;99.90
1411;DHT22;700;51.906;8.404;2023-04-03T03:39:58;4.20;99.90
1411;DHT22;700;51.906;8.404;2023-04-03T03:44:58;4.10;99.90
1411;DHT22;700;51.906;8.404;2023-04-03T03:49:59;4.20;99.90
1411;DHT22;700;51.906;8.404;2023-04-03T03:55:00;4.30;99.90
1411;DHT22;700;51.906;8.404;2023-04-03T04:00:03;4.20;99.90
1411;DHT22;700;51.906;8.404;2023-04-03T04:05:04;4.10;99.90
1411;DHT22;700;51.906;8.404;2023-04-03T04:10:05;4.40;99.90
1411;DHT22;700;51.906;8.404;2023-04-03T04:15:06;4.30;99.90
1411;DHT22;700;51.906;8.404;2023-04-03T04:20:07;4.20;99.90
1411;DHT22;700;51.906;8.404;2023-04-03T04:25:11;4.30;99.90
1411;DHT22;700;51.906;8.404;2023-04-03T04:30:12;4.20;99.90
1411;DHT22;700;51.906;8.404;2023-04-03T04:35:15;4.00;99.90
1411;DHT22;700;51.906;8.404;2023-04-03T04:40:18;4.20;99.90
1411;DHT22;700;51.906;8.404;2023-04-03T04:45:21;4.30;99.90
1411;DHT22;700;51.906;8.404;2023-04-03T04:50:22;4.10;99.90
1411;DHT22;700;51.906;8.404;2023-04-03T04:55:25;4.00;99.90
1411;DHT22;700;51.906;8.404;2023-04-03T05:00:26;4.10;99.90
1411;DHT22;700;51.906;8.404;2023-04-03T05:05:27;4.10;99.90
1411;DHT22;700;51.906;8.404;2023-04-03T05:10:31;4.10;99.90
1411;DHT22;700;51.906;8.404;2023-04-03T05:15:31;4.10;99.90
1411;DHT22;700;51.906;8.404;2023-04-03T05:20:32;4.20;99.90
1411;DHT22;700;51.906;8.404;2023-04-03T05:25:36;4.10;99.90
1411;DHT22;700;51.906;8.404;2023-04-03T05:30:45;4.10;99.90
1411;DHT22;700;51.906;8.404;2023-04-03T05:35:46;4.00;99.90
1411;DHT22;700;51.906;8.404;2023-04-03T05:40:46;4.10;99.90
1411;DHT22;700;51.906;8.404;2023-04-03T05:45:50;4.30;99.90
1411;DHT22;700;51.906;8.404;2023-04-03T05:50:50;4.20;99.90
1411;DHT22;700;51.906;8.404;2023-04-03T05:55:51;4.20;99.90
1411;DHT22;700;51.906;8.404;2023-04-03T06:00:52;4.40;99.90
1411;DHT22;700;51.906;8.404;2023-04-03T06:05:55;4.40;99.90
1411;DHT22;700;51.906;8.404;2023-04-03T06:10:56;4.50;99.90
1411;DHT22;700;51.906;8.404;2023-04-03T06:15:56;4.70;99.90
1411;DHT22;700;51.906;8.404;2023-04-03T06:20:57;4.80;99.90
1411;DHT22;700;51.906;8.404;2023-04-03T06:25:58;5.00;99.90
1411;DHT22;700;51.906;8.404;2023-04-03T06:31:01;5.20;99.90
1411;DHT22;700;51.906;8.404;2023-04-03T06:36:04;5.30;99.90
1411;DHT22;700;51.906;8.404;2023-04-03T06:41:05;5.80;99.90
1411;DHT22;700;51.906;8.404;2023-04-03T06:46:20;7.10;99.90
1411;DHT22;700;51.906;8.404;2023-04-03T06:51:28;9.10;99.90
1411;DHT22;700;51.906;8.404;2023-04-03T06:56:28;10.60;99.90
1411;DHT22;700;51.906;8.404;2023-04-03T07:01:30;11.30;99.90
1411;DHT22;700;51.906;8.404;2023-04-03T07:06:35;10.90;95.30
1411;DHT22;700;51.906;8.404;2023-04-03T07:11:38;11.30;93.80
1411;DHT22;700;51.906;8.404;2023-04-03T07:16:39;11.90;90.00
1411;DHT22;700;51.906;8.404;2023-04-03T07:21:39;12.50;86.90
1411;DHT22;700;51.906;8.404;2023-04-03T07:26:42;10.70;85.20
1411;DHT22;700;51.906;8.404;2023-04-03T07:31:43;8.90;92.90
1411;DHT22;700;51.906;8.404;2023-04-03T07:36:45;9.00;94.30
1411;DHT22;700;51.906;8.404;2023-04-03T07:41:45;8.50;95.40
1411;DHT22;700;51.906;8.404;2023-04-03T07:46:48;8.20;94.40
1411;DHT22;700;51.906;8.404;2023-04-03T07:51:49;9.80;98.30
1411;DHT22;700;51.906;8.404;2023-04-03T07:56:53;11.00;92.70
1411;DHT22;700;51.906;8.404;2023-04-03T08:01:54;12.50;88.00
1411;DHT22;700;51.906;8.404;2023-04-03T08:06:54;12.90;84.90
1411;DHT22;700;51.906;8.404;2023-04-03T08:11:55;13.00;78.80
1411;DHT22;700;51.906;8.404;2023-04-03T08:16:58;14.60;69.30
1411;DHT22;700;51.906;8.404;2023-04-03T08:21:59;15.10;59.80
1411;DHT22;700;51.906;8.404;2023-04-03T08:27:03;16.50;54.20
1411;DHT22;700;51.906;8.404;2023-04-03T08:32:04;17.40;47.10
1411;DHT22;700;51.906;8.404;2023-04-03T08:37:05;18.30;47.20
1411;DHT22;700;51.906;8.404;2023-04-03T08:42:19;16.60;46.20
1411;DHT22;700;51.906;8.404;2023-04-03T08:47:42;15.90;46.90
1411;DHT22;700;51.906;8.404;2023-04-03T08:52:59;15.50;47.50
1411;DHT22;700;51.906;8.404;2023-04-03T08:58:11;16.60;45.70
1411;DHT22;700;51.906;8.404;2023-04-03T09:03:20;17.70;44.20
1411;DHT22;700;51.906;8.404;2023-04-03T09:13:39;18.40;45.50
1411;DHT22;700;51.906;8.404;2023-04-03T09:18:44;21.40;45.70
1411;DHT22;700;51.906;8.404;2023-04-03T09:23:57;22.80;38.90
1411;DHT22;700;51.906;8.404;2023-04-03T09:29:02;22.20;38.40
1411;DHT22;700;51.906;8.404;2023-04-03T09:39:23;22.70;31.60
1411;DHT22;700;51.906;8.404;2023-04-03T09:44:27;22.40;31.90
1411;DHT22;700;51.906;8.404;2023-04-03T09:49:28;26.60;30.30
1411;DHT22;700;51.906;8.404;2023-04-03T09:54:34;25.90;30.20
1411;DHT22;700;51.906;8.404;2023-04-03T10:00:00;26.60;28.20
1411;DHT22;700;51.906;8.404;2023-04-03T10:10:28;29.50;26.10
1411;DHT22;700;51.906;8.404;2023-04-03T10:15:44;30.20;24.50
1411;DHT22;700;51.906;8.404;2023-04-03T10:20:49;32.50;22.90
1411;DHT22;700;51.906;8.404;2023-04-03T10:42:22;39.50;19.10
1411;DHT22;700;51.906;8.404;2023-04-03T10:47:27;36.60;19.70
1411;DHT22;700;51.906;8.404;2023-04-03T10:57:34;29.90;21.80
1411;DHT22;700;51.906;8.404;2023-04-03T11:02:39;31.30;21.60
1411;DHT22;700;51.906;8.404;2023-04-03T11:07:47;33.70;20.80
1411;DHT22;700;51.906;8.404;2023-04-03T11:13:13;34.00;20.60
1411;DHT22;700;51.906;8.404;2023-04-03T11:18:20;37.60;19.70
1411;DHT22;700;51.906;8.404;2023-04-03T11:23:25;37.60;19.00
1411;DHT22;700;51.906;8.404;2023-04-03T11:28:29;33.70;17.60
1411;DHT22;700;51.906;8.404;2023-04-03T11:33:44;33.70;19.20
1411;DHT22;700;51.906;8.404;2023-04-03T11:38:51;30.80;21.90
1411;DHT22;700;51.906;8.404;2023-04-03T11:44:00;33.20;20.50
1411;DHT22;700;51.906;8.404;2023-04-03T11:49:01;31.30;21.20
1411;DHT22;700;51.906;8.404;2023-04-03T11:59:42;30.80;22.30
1411;DHT22;700;51.906;8.404;2023-04-03T12:10:24;27.10;24.80
1411;DHT22;700;51.906;8.404;2023-04-03T12:15:49;26.50;24.40
1411;DHT22;700;51.906;8.404;2023-04-03T12:25:52;27.30;24.60
1411;DHT22;700;51.906;8.404;2023-04-03T12:31:01;29.20;24.50
1411;DHT22;700;51.906;8.404;2023-04-03T12:36:15;29.10;23.90
1411;DHT22;700;51.906;8.404;2023-04-03T12:41:49;27.30;24.80
1411;DHT22;700;51.906;8.404;2023-04-03T12:46:53;23.80;26.70
1411;DHT22;700;51.906;8.404;2023-04-03T12:51:56;22.00;27.50
1411;DHT22;700;51.906;8.404;2023-04-03T13:02:30;19.70;30.20
1411;DHT22;700;51.906;8.404;2023-04-03T13:07:36;21.10;31.00
1411;DHT22;700;51.906;8.404;2023-04-03T13:17:50;22.60;27.80
1411;DHT22;700;51.906;8.404;2023-04-03T13:23:06;26.80;26.40
1411;DHT22;700;51.906;8.404;2023-04-03T13:28:17;29.30;25.10
1411;DHT22;700;51.906;8.404;2023-04-03T13:33:22;29.00;24.00
1411;DHT22;700;51.906;8.404;2023-04-03T13:38:28;25.90;24.40
1411;DHT22;700;51.906;8.404;2023-04-03T13:43:34;29.30;24.90
1411;DHT22;700;51.906;8.404;2023-04-03T13:48:38;31.10;22.20
1411;DHT22;700;51.906;8.404;2023-04-03T13:53:48;22.50;24.40
1411;DHT22;700;51.906;8.404;2023-04-03T13:59:04;23.90;27.70
1411;DHT22;700;51.906;8.404;2023-04-03T14:04:18;28.10;26.30
1411;DHT22;700;51.906;8.404;2023-04-03T14:09:24;24.90;25.60
1411;DHT22;700;51.906;8.404;2023-04-03T14:14:31;21.10;29.00
1411;DHT22;700;51.906;8.404;2023-04-03T14:19:35;18.70;31.40
1411;DHT22;700;51.906;8.404;2023-04-03T14:24:36;19.80;30.50
1411;DHT22;700;51.906;8.404;2023-04-03T14:29:41;20.40;29.80
1411;DHT22;700;51.906;8.404;2023-04-03T14:34:45;18.90;31.20
1411;DHT22;700;51.906;8.404;2023-04-03T14:39:50;17.10;31.00
1411;DHT22;700;51.906;8.404;2023-04-03T14:44:52;17.00;32.20
1411;DHT22;700;51.906;8.404;2023-04-03T14:49:53;14.90;34.70
1411;DHT22;700;51.906;8.404;2023-04-03T14:54:54;15.30;38.20
1411;DHT22;700;51.906;8.404;2023-04-03T14:59:58;16.10;35.20
1411;DHT22;700;51.906;8.404;2023-04-03T15:05:03;16.60;35.00
1411;DHT22;700;51.906;8.404;2023-04-03T15:15:19;15.30;37.40
1411;DHT22;700;51.906;8.404;2023-04-03T15:20:26;14.70;36.00
1411;DHT22;700;51.906;8.404;2023-04-03T15:25:28;14.60;37.10
1411;DHT22;700;51.906;8.404;2023-04-03T15:30:29;14.50;37.90
1411;DHT22;700;51.906;8.404;2023-04-03T15:35:30;13.60;37.10
1411;DHT22;700;51.906;8.404;2023-04-03T15:40:30;14.10;36.60
1411;DHT22;700;51.906;8.404;2023-04-03T15:45:37;13.00;38.60
1411;DHT22;700;51.906;8.404;2023-04-03T15:50:38;12.10;39.60
1411;DHT22;700;51.906;8.404;2023-04-03T15:55:39;12.40;40.80
1411;DHT22;700;51.906;8.404;2023-04-03T16:00:40;12.60;40.80
1411;DHT22;700;51.906;8.404;2023-04-03T16:05:43;12.80;42.40
1411;DHT22;700;51.906;8.404;2023-04-03T16:10:44;12.80;40.50
1411;DHT22;700;51.906;8.404;2023-04-03T16:15:46;13.10;41.90
1411;DHT22;700;51.906;8.404;2023-04-03T16:20:49;13.40;41.60
1411;DHT22;700;51.906;8.404;2023-04-03T16:25:49;13.20;40.20
1411;DHT22;700;51.906;8.404;2023-04-03T16:30:53;13.50;40.40
1411;DHT22;700;51.906;8.404;2023-04-03T16:35:53;13.00;39.20
1411;DHT22;700;51.906;8.404;2023-04-03T16:40:54;13.10;40.90
1411;DHT22;700;51.906;8.404;2023-04-03T16:45:57;13.00;41.70
1411;DHT22;700;51.906;8.404;2023-04-03T16:50:59;12.90;41.30
1411;DHT22;700;51.906;8.404;2023-04-03T16:56:00;12.60;41.20
1411;DHT22;700;51.906;8.404;2023-04-03T17:01:16;12.50;42.10
1411;DHT22;700;51.906;8.404;2023-04-03T17:06:21;11.80;41.00
1411;DHT22;700;51.906;8.404;2023-04-03T17:11:25;11.30;42.20
1411;DHT22;700;51.906;8.404;2023-04-03T17:16:26;11.00;43.40
1411;DHT22;700;51.906;8.404;2023-04-03T17:21:30;11.00;44.30
1411;DHT22;700;51.906;8.404;2023-04-03T17:26:33;10.70;43.40
1411;DHT22;700;51.906;8.404;2023-04-03T17:31:39;10.30;44.70
1411;DHT22;700;51.906;8.404;2023-04-03T17:36:39;10.50;45.10
1411;DHT22;700;51.906;8.404;2023-04-03T17:41:40;10.00;45.30
1411;DHT22;700;51.906;8.404;2023-04-03T17:46:41;10.10;46.80
1411;DHT22;700;51.906;8.404;2023-04-03T17:51:42;9.90;47.80
1411;DHT22;700;51.906;8.404;2023-04-03T17:56:42;9.70;48.00
1411;DHT22;700;51.906;8.404;2023-04-03T18:01:47;9.80;48.70
1411;DHT22;700;51.906;8.404;2023-04-03T18:06:50;9.50;47.70
1411;DHT22;700;51.906;8.404;2023-04-03T18:11:51;9.50;49.50
1411;DHT22;700;51.906;8.404;2023-04-03T18:16:52;9.40;49.60
1411;DHT22;700;51.906;8.404;2023-04-03T18:21:56;9.40;49.30
1411;DHT22;700;51.906;8.404;2023-04-03T18:27:12;9.30;50.10
1411;DHT22;700;51.906;8.404;2023-04-03T18:32:15;9.20;50.90
1411;DHT22;700;51.906;8.404;2023-04-03T18:37:17;9.10;51.80
1411;DHT22;700;51.906;8.404;2023-04-03T18:42:23;8.80;52.80
1411;DHT22;700;51.906;8.404;2023-04-03T18:47:26;8.70;53.00
1411;DHT22;700;51.906;8.404;2023-04-03T18:52:27;8.60;53.80
1411;DHT22;700;51.906;8.404;2023-04-03T18:57:33;8.40;55.00
1411;DHT22;700;51.906;8.404;2023-04-03T19:02:33;8.40;54.40
1411;DHT22;700;51.906;8.404;2023-04-03T19:07:36;8.40;55.10
1411;DHT22;700;51.906;8.404;2023-04-03T19:12:39;8.30;56.30
1411;DHT22;700;51.906;8.404;2023-04-03T19:17:40;7.90;57.60
1411;DHT22;700;51.906;8.404;2023-04-03T19:22:45;7.90;57.60
1411;DHT22;700;51.906;8.404;2023-04-03T19:27:48;7.80;59.10
1411;DHT22;700;51.906;8.404;2023-04-03T19:32:49;7.70;60.30
1411;DHT22;700;51.906;8.404;2023-04-03T19:37:51;7.70;60.30
1411;DHT22;700;51.906;8.404;2023-04-03T19:42:55;7.60;61.20
1411;DHT22;700;51.906;8.404;2023-04-03T19:47:55;7.50;61.90
1411;DHT22;700;51.906;8.404;2023-04-03T19:53:00;7.50;63.20
1411;DHT22;700;51.906;8.404;2023-04-03T19:58:01;7.30;63.80
1411;DHT22;700;51.906;8.404;2023-04-03T20:03:02;7.10;66.40
1411;DHT22;700;51.906;8.404;2023-04-03T20:08:03;7.00;67.80
1411;DHT22;700;51.906;8.404;2023-04-03T20:13:04;7.00;69.00
1411;DHT22;700;51.906;8.404;2023-04-03T20:18:09;7.00;69.30
1411;DHT22;700;51.906;8.404;2023-04-03T20:23:14;6.90;71.30
1411;DHT22;700;51.906;8.404;2023-04-03T20:28:17;6.90;70.90
1411;DHT22;700;51.906;8.404;2023-04-03T20:33:18;6.90;72.80
1411;DHT22;700;51.906;8.404;2023-04-03T20:38:19;6.90;73.00
1411;DHT22;700;51.906;8.404;2023-04-03T20:43:20;6.70;73.60
1411;DHT22;700;51.906;8.404;2023-04-03T20:48:24;6.80;74.40
1411;DHT22;700;51.906;8.404;2023-04-03T20:53:27;6.70;75.10
1411;DHT22;700;51.906;8.404;2023-04-03T20:58:31;6.70;76.40
1411;DHT22;700;51.906;8.404;2023-04-03T21:03:35;6.70;77.30
1411;DHT22;700;51.906;8.404;2023-04-03T21:19:54;6.70;82.50
1411;DHT22;700;51.906;8.404;2023-04-03T21:24:56;6.50;83.40
1411;DHT22;700;51.906;8.404;2023-04-03T21:29:56;6.40;83.90
1411;DHT22;700;51.906;8.404;2023-04-03T21:34:57;6.50;85.90
1411;DHT22;700;51.906;8.404;2023-04-03T21:39:58;6.20;87.90
1411;DHT22;700;51.906;8.404;2023-04-03T21:44:58;6.10;90.10
1411;DHT22;700;51.906;8.404;2023-04-03T21:49:59;6.10;90.60
1411;DHT22;700;51.906;8.404;2023-04-03T21:55:00;6.10;91.50
1411;DHT22;700;51.906;8.404;2023-04-03T22:00:01;5.70;91.30
1411;DHT22;700;51.906;8.404;2023-04-03T22:05:04;5.90;91.30
1411;DHT22;700;51.906;8.404;2023-04-03T22:10:07;5.90;91.40
1411;DHT22;700;51.906;8.404;2023-04-03T22:15:08;5.90;91.50
1411;DHT22;700;51.906;8.404;2023-04-03T22:20:09;5.70;92.30
1411;DHT22;700;51.906;8.404;2023-04-03T22:25:10;5.60;93.10
1411;DHT22;700;51.906;8.404;2023-04-03T22:30:13;5.40;94.30
1411;DHT22;700;51.906;8.404;2023-04-03T22:35:13;5.20;95.80
1411;DHT22;700;51.906;8.404;2023-04-03T22:40:14;5.30;96.30
1411;DHT22;700;51.906;8.404;2023-04-03T22:45:17;5.20;97.50
1411;DHT22;700;51.906;8.404;2023-04-03T22:50:19;5.10;99.20
1411;DHT22;700;51.906;8.404;2023-04-03T22:55:19;5.00;99.90
1411;DHT22;700;51.906;8.404;2023-04-03T23:00:20;5.10;99.90
1411;DHT22;700;51.906;8.404;2023-04-03T23:05:21;5.10;99.90
1411;DHT22;700;51.906;8.404;2023-04-03T23:10:22;4.90;99.90
1411;DHT22;700;51.906;8.404;2023-04-03T23:15:25;4.90;99.90
1411;DHT22;700;51.906;8.404;2023-04-03T23:20:26;4.80;99.90
1411;DHT22;700;51.906;8.404;2023-04-03T23:25:29;4.60;99.90
1411;DHT22;700;51.906;8.404;2023-04-03T23:30:29;4.60;99.90
1411;DHT22;700;51.906;8.404;2023-04-03T23:35:30;4.50;99.90
1411;DHT22;700;51.906;8.404;2023-04-03T23:40:31;4.50;99.90
1411;DHT22;700;51.906;8.404;2023-04-03T23:45:31;4.50;99.90
1411;DHT22;700;51.906;8.404;2023-04-03T23:50:37;4.70;99.90
1411;DHT22;700;51.906;8.404;2023-04-03T23:55:38;4.60;99.90
